createdAt,value
2023-01-09T00:00:14.205Z,10.90
2023-01-09T00:01:14.191Z,11.13
2023-01-09T00:02:14.215Z,10.97
2023-01-09T00:03:14.239Z,10.75
2023-01-09T00:04:14.312Z,10.90
2023-01-09T00:05:14.214Z,10.87
2023-01-09T00:06:14.212Z,10.79
2023-01-09T00:07:14.253Z,10.86
2023-01-09T00:08:14.342Z,10.89
2023-01-09T00:09:14.383Z,10.97
2023-01-09T00:10:14.432Z,10.94
2023-01-09T00:11:14.606Z,10.97
2023-01-09T00:12:14.521Z,11.07
2023-01-09T00:13:14.576Z,11.19
2023-01-09T00:14:14.635Z,11.27
2023-01-09T00:15:14.690Z,11.31
2023-01-09T00:16:14.744Z,11.16
2023-01-09T00:17:14.798Z,11.19
2023-01-09T00:18:14.855Z,11.20
2023-01-09T00:19:14.915Z,11.18
2023-01-09T00:20:14.968Z,11.08
2023-01-09T00:21:15.020Z,11.10
2023-01-09T00:22:15.058Z,11.20
2023-01-09T00:23:15.104Z,11.30
2023-01-09T00:24:15.171Z,11.23
2023-01-09T00:25:15.141Z,11.40
2023-01-09T00:26:15.190Z,11.27
2023-01-09T00:27:15.248Z,11.27
2023-01-09T00:28:15.302Z,11.43
2023-01-09T00:29:15.315Z,11.34
2023-01-09T00:30:15.361Z,11.40
2023-01-09T00:31:15.431Z,11.45
2023-01-09T00:32:15.479Z,11.40
2023-01-09T00:33:15.541Z,11.53
2023-01-09T00:34:15.589Z,11.76
2023-01-09T00:35:15.638Z,11.74
2023-01-09T00:36:15.707Z,11.86
2023-01-09T00:37:15.760Z,11.86
2023-01-09T00:38:15.829Z,11.73
2023-01-09T00:39:15.896Z,11.73
2023-01-09T00:40:15.940Z,11.62
2023-01-09T00:41:15.990Z,11.63
2023-01-09T00:42:16.042Z,11.63
2023-01-09T00:43:16.101Z,11.65
2023-01-09T00:44:16.165Z,11.67
2023-01-09T00:45:16.215Z,11.68
2023-01-09T00:46:16.284Z,11.56
2023-01-09T00:47:16.264Z,11.63
2023-01-09T00:48:16.310Z,11.58
2023-01-09T00:49:16.380Z,11.53
2023-01-09T00:50:16.436Z,11.62
2023-01-09T00:51:16.485Z,11.59
2023-01-09T00:52:16.545Z,11.37
2023-01-09T00:53:16.603Z,11.43
2023-01-09T00:54:16.690Z,11.52
2023-01-09T00:55:16.651Z,11.53
2023-01-09T00:56:16.694Z,11.56
2023-01-09T00:57:16.744Z,11.44
2023-01-09T00:58:16.793Z,11.44
2023-01-09T00:59:16.863Z,11.53
2023-01-09T01:00:16.913Z,11.44
2023-01-09T01:01:17.129Z,11.56
2023-01-09T01:02:17.266Z,11.62
2023-01-09T01:03:17.028Z,11.55
2023-01-09T01:04:17.076Z,11.48
2023-01-09T01:05:17.131Z,11.44
2023-01-09T01:06:17.187Z,11.43
2023-01-09T01:07:17.247Z,11.26
2023-01-09T01:08:17.299Z,11.30
2023-01-09T01:09:17.315Z,11.02
2023-01-09T01:10:17.374Z,11.05
2023-01-09T01:11:17.416Z,11.16
2023-01-09T01:12:17.486Z,10.94
2023-01-09T01:13:17.529Z,11.13
2023-01-09T01:14:17.581Z,11.33
2023-01-09T01:15:17.643Z,11.48
2023-01-09T01:16:17.672Z,11.25
2023-01-09T01:17:17.628Z,11.02
2023-01-09T01:18:17.688Z,11.08
2023-01-09T01:19:17.717Z,11.10
2023-01-09T01:20:17.790Z,11.01
2023-01-09T01:21:17.795Z,10.84
2023-01-09T01:22:17.782Z,10.94
2023-01-09T01:23:17.839Z,10.89
2023-01-09T01:24:17.881Z,11.16
2023-01-09T01:25:17.941Z,11.26
2023-01-09T01:26:17.986Z,11.13
2023-01-09T01:27:18.020Z,11.19
2023-01-09T01:28:18.089Z,11.15
2023-01-09T01:29:18.074Z,11.05
2023-01-09T01:30:18.117Z,11.20
2023-01-09T01:31:18.231Z,11.31
2023-01-09T01:32:18.186Z,11.08
2023-01-09T01:33:18.224Z,11.00
2023-01-09T01:34:18.273Z,11.22
2023-01-09T01:35:18.311Z,11.04
2023-01-09T01:36:18.341Z,11.07
2023-01-09T01:37:18.369Z,10.79
2023-01-09T01:38:18.384Z,10.80
2023-01-09T01:39:18.436Z,10.89
2023-01-09T01:40:18.483Z,10.94
2023-01-09T01:41:18.496Z,10.82
2023-01-09T01:42:18.538Z,10.76
2023-01-09T01:43:18.545Z,10.80
2023-01-09T01:44:18.525Z,10.90
2023-01-09T01:45:18.579Z,10.69
2023-01-09T01:46:18.702Z,10.82
2023-01-09T01:47:18.703Z,10.75
2023-01-09T01:48:18.742Z,10.64
2023-01-09T01:49:18.785Z,10.80
2023-01-09T01:50:18.764Z,10.82
2023-01-09T01:51:18.797Z,10.67
2023-01-09T01:52:18.858Z,10.49
2023-01-09T01:53:18.854Z,10.67
2023-01-09T01:54:18.918Z,10.49
2023-01-09T01:55:18.938Z,10.31
2023-01-09T01:56:18.938Z,10.28
2023-01-09T01:57:18.999Z,10.38
2023-01-09T01:58:19.048Z,10.27
2023-01-09T01:59:19.042Z,10.36
2023-01-09T02:00:19.058Z,10.20
2023-01-09T02:01:19.179Z,10.17
2023-01-09T02:02:19.253Z,10.09
2023-01-09T02:03:19.170Z,10.03
2023-01-09T02:04:19.179Z,10.05
2023-01-09T02:05:19.209Z,10.00
2023-01-09T02:06:19.210Z,10.12
2023-01-09T02:07:19.220Z,10.09
2023-01-09T02:08:19.271Z,10.31
2023-01-09T02:09:19.275Z,10.27
2023-01-09T02:10:19.259Z,10.17
2023-01-09T02:11:19.288Z,9.90
2023-01-09T02:12:19.311Z,10.02
2023-01-09T02:13:19.362Z,10.02
2023-01-09T02:14:19.354Z,10.15
2023-01-09T02:15:19.411Z,10.17
2023-01-09T02:16:19.429Z,9.97
2023-01-09T02:17:19.423Z,9.99
2023-01-09T02:18:19.463Z,9.84
2023-01-09T02:19:19.453Z,9.82
2023-01-09T02:20:19.494Z,9.76
2023-01-09T02:21:19.482Z,9.77
2023-01-09T02:22:19.523Z,9.91
2023-01-09T02:23:19.512Z,10.07
2023-01-09T02:24:19.544Z,10.20
2023-01-09T02:25:19.561Z,9.90
2023-01-09T02:26:19.544Z,10.03
2023-01-09T02:27:19.587Z,10.18
2023-01-09T02:28:19.625Z,10.17
2023-01-09T02:29:19.625Z,10.18
2023-01-09T02:30:19.697Z,10.23
2023-01-09T02:31:19.770Z,10.03
2023-01-09T02:32:19.756Z,10.13
2023-01-09T02:33:19.784Z,9.91
2023-01-09T02:34:19.796Z,9.95
2023-01-09T02:35:19.769Z,9.85
2023-01-09T02:36:19.816Z,9.97
2023-01-09T02:37:19.827Z,9.91
2023-01-09T02:38:19.826Z,9.94
2023-01-09T02:39:19.846Z,9.85
2023-01-09T02:40:19.878Z,9.80
2023-01-09T02:41:19.950Z,9.63
2023-01-09T02:42:19.919Z,9.70
2023-01-09T02:43:19.930Z,9.82
2023-01-09T02:44:19.953Z,9.81
2023-01-09T02:45:19.950Z,9.85
2023-01-09T02:46:20.023Z,9.80
2023-01-09T02:47:20.042Z,9.72
2023-01-09T02:48:20.058Z,9.81
2023-01-09T02:49:20.048Z,9.77
2023-01-09T02:50:20.039Z,9.85
2023-01-09T02:51:20.124Z,9.82
2023-01-09T02:52:20.100Z,9.77
2023-01-09T02:53:20.144Z,9.72
2023-01-09T02:54:20.181Z,9.76
2023-01-09T02:55:20.221Z,9.81
2023-01-09T02:56:20.239Z,9.73
2023-01-09T02:57:20.302Z,9.72
2023-01-09T02:58:20.359Z,9.70
2023-01-09T02:59:20.423Z,9.62
2023-01-09T03:00:20.397Z,9.44
2023-01-09T03:01:20.563Z,9.54
2023-01-09T03:02:20.433Z,9.63
2023-01-09T03:03:20.431Z,9.69
2023-01-09T03:04:20.495Z,9.52
2023-01-09T03:05:20.494Z,9.58
2023-01-09T03:06:20.497Z,9.72
2023-01-09T03:07:20.513Z,9.69
2023-01-09T03:08:20.499Z,9.73
2023-01-09T03:09:20.505Z,9.82
2023-01-09T03:10:20.546Z,9.74
2023-01-09T03:11:20.536Z,9.62
2023-01-09T03:12:20.559Z,9.47
2023-01-09T03:13:20.555Z,9.55
2023-01-09T03:14:20.581Z,9.64
2023-01-09T03:15:20.566Z,9.66
2023-01-09T03:16:20.627Z,9.73
2023-01-09T03:17:20.619Z,9.81
2023-01-09T03:18:20.686Z,9.80
2023-01-09T03:19:20.691Z,9.88
2023-01-09T03:20:20.697Z,9.81
2023-01-09T03:21:20.719Z,9.74
2023-01-09T03:22:20.717Z,9.88
2023-01-09T03:23:20.717Z,9.90
2023-01-09T03:24:20.789Z,9.62
2023-01-09T03:25:20.848Z,9.51
2023-01-09T03:26:20.905Z,9.55
2023-01-09T03:27:20.920Z,9.64
2023-01-09T03:28:20.933Z,9.84
2023-01-09T03:29:20.929Z,9.70
2023-01-09T03:30:20.927Z,9.81
2023-01-09T03:31:21.041Z,9.73
2023-01-09T03:32:20.989Z,9.52
2023-01-09T03:33:20.990Z,9.54
2023-01-09T03:34:20.980Z,9.80
2023-01-09T03:35:20.971Z,9.81
2023-01-09T03:36:20.973Z,9.85
2023-01-09T03:37:21.009Z,9.62
2023-01-09T03:38:21.059Z,9.52
2023-01-09T03:39:21.062Z,9.39
2023-01-09T03:40:21.124Z,9.33
2023-01-09T03:41:21.175Z,9.47
2023-01-09T03:42:21.222Z,9.49
2023-01-09T03:43:21.223Z,9.66
2023-01-09T03:44:21.247Z,9.48
2023-01-09T03:45:21.264Z,9.36
2023-01-09T03:46:21.314Z,9.26
2023-01-09T03:47:21.355Z,9.45
2023-01-09T03:48:21.409Z,9.45
2023-01-09T03:49:21.437Z,9.45
2023-01-09T03:50:21.439Z,9.63
2023-01-09T03:51:21.429Z,9.76
2023-01-09T03:52:21.466Z,9.67
2023-01-09T03:53:21.507Z,9.55
2023-01-09T03:54:21.556Z,9.42
2023-01-09T03:55:21.558Z,9.56
2023-01-09T03:56:21.579Z,9.62
2023-01-09T03:57:21.601Z,9.59
2023-01-09T03:58:21.631Z,9.62
2023-01-09T03:59:21.637Z,9.55
2023-01-09T04:00:21.681Z,9.40
2023-01-09T04:01:21.821Z,9.22
2023-01-09T04:02:21.748Z,9.27
2023-01-09T04:03:21.781Z,9.39
2023-01-09T04:04:21.783Z,9.63
2023-01-09T04:05:21.779Z,9.73
2023-01-09T04:06:21.770Z,9.47
2023-01-09T04:07:21.778Z,9.44
2023-01-09T04:08:21.788Z,9.49
2023-01-09T04:09:21.799Z,9.47
2023-01-09T04:10:21.822Z,9.56
2023-01-09T04:11:21.811Z,9.52
2023-01-09T04:12:21.807Z,9.34
2023-01-09T04:13:21.809Z,9.58
2023-01-09T04:14:21.811Z,9.64
2023-01-09T04:15:21.824Z,9.63
2023-01-09T04:16:21.967Z,9.55
2023-01-09T04:17:21.922Z,9.72
2023-01-09T04:18:21.985Z,9.66
2023-01-09T04:19:21.999Z,9.62
2023-01-09T04:20:22.023Z,9.48
2023-01-09T04:21:22.062Z,9.51
2023-01-09T04:22:22.083Z,9.56
2023-01-09T04:23:22.090Z,9.70
2023-01-09T04:24:22.132Z,9.49
2023-01-09T04:25:22.144Z,9.39
2023-01-09T04:26:22.156Z,9.47
2023-01-09T04:27:22.183Z,9.55
2023-01-09T04:28:22.223Z,9.63
2023-01-09T04:29:22.246Z,9.48
2023-01-09T04:30:22.321Z,9.42
2023-01-09T04:31:22.321Z,9.45
2023-01-09T04:32:22.347Z,9.33
2023-01-09T04:33:22.377Z,9.26
2023-01-09T04:34:22.369Z,9.37
2023-01-09T04:35:22.374Z,9.34
2023-01-09T04:36:22.380Z,9.27
2023-01-09T04:37:22.396Z,9.36
2023-01-09T04:38:22.429Z,9.45
2023-01-09T04:39:22.475Z,9.49
2023-01-09T04:40:22.508Z,9.51
2023-01-09T04:41:22.527Z,9.62
2023-01-09T04:42:22.518Z,9.58
2023-01-09T04:43:22.532Z,9.64
2023-01-09T04:44:22.523Z,9.47
2023-01-09T04:45:22.548Z,9.36
2023-01-09T04:46:22.589Z,9.15
2023-01-09T04:47:22.609Z,9.24
2023-01-09T04:48:22.664Z,9.47
2023-01-09T04:49:22.660Z,9.37
2023-01-09T04:50:22.698Z,9.34
2023-01-09T04:51:22.760Z,9.44
2023-01-09T04:52:22.825Z,9.30
2023-01-09T04:53:22.892Z,9.24
2023-01-09T04:54:22.916Z,9.34
2023-01-09T04:55:22.961Z,9.45
2023-01-09T04:56:23.024Z,9.37
2023-01-09T04:57:23.057Z,9.34
2023-01-09T04:58:23.090Z,9.44
2023-01-09T04:59:23.120Z,9.47
2023-01-09T05:00:23.112Z,9.44
2023-01-09T05:01:23.190Z,9.37
2023-01-09T05:02:23.225Z,9.30
2023-01-09T05:03:23.260Z,9.37
2023-01-09T05:04:23.368Z,9.36
2023-01-09T05:05:23.326Z,9.44
2023-01-09T05:06:23.329Z,9.58
2023-01-09T05:07:23.374Z,9.42
2023-01-09T05:08:23.383Z,9.40
2023-01-09T05:09:23.394Z,9.31
2023-01-09T05:10:23.442Z,9.27
2023-01-09T05:11:23.463Z,9.40
2023-01-09T05:12:23.494Z,9.31
2023-01-09T05:13:23.525Z,9.29
2023-01-09T05:14:23.502Z,9.30
2023-01-09T05:15:23.525Z,9.39
2023-01-09T05:16:23.585Z,9.47
2023-01-09T05:17:23.616Z,9.56
2023-01-09T05:18:23.645Z,9.44
2023-01-09T05:19:23.765Z,9.39
2023-01-09T05:20:23.718Z,9.47
2023-01-09T05:21:23.755Z,9.54
2023-01-09T05:22:23.785Z,9.49
2023-01-09T05:23:23.842Z,9.48
2023-01-09T05:24:23.858Z,9.42
2023-01-09T05:25:23.848Z,9.45
2023-01-09T05:26:23.856Z,9.24
2023-01-09T05:27:23.858Z,9.36
2023-01-09T05:28:23.852Z,9.45
2023-01-09T05:29:23.877Z,9.31
2023-01-09T05:30:23.894Z,9.18
2023-01-09T05:31:23.947Z,8.97
2023-01-09T05:32:23.960Z,9.02
2023-01-09T05:33:23.947Z,8.79
2023-01-09T05:34:23.988Z,8.86
2023-01-09T05:35:24.001Z,8.82
2023-01-09T05:36:24.058Z,8.84
2023-01-09T05:37:24.101Z,9.05
2023-01-09T05:38:24.109Z,9.09
2023-01-09T05:39:24.164Z,9.12
2023-01-09T05:40:29.089Z,9.09
2023-01-09T05:41:24.325Z,9.13
2023-01-09T05:42:24.324Z,9.27
2023-01-09T05:43:24.310Z,9.34
2023-01-09T05:44:24.330Z,9.26
2023-01-09T05:45:24.351Z,9.19
2023-01-09T05:46:24.403Z,9.19
2023-01-09T05:47:24.442Z,9.00
2023-01-09T05:48:24.484Z,9.11
2023-01-09T05:49:24.521Z,9.12
2023-01-09T05:50:24.545Z,9.09
2023-01-09T05:51:24.541Z,8.96
2023-01-09T05:52:24.578Z,9.12
2023-01-09T05:53:24.562Z,9.24
2023-01-09T05:54:24.596Z,9.18
2023-01-09T05:55:24.656Z,9.02
2023-01-09T05:56:24.654Z,9.00
2023-01-09T05:57:24.674Z,9.05
2023-01-09T05:58:24.707Z,9.12
2023-01-09T05:59:24.735Z,9.05
2023-01-09T06:00:24.727Z,8.96
2023-01-09T06:01:24.830Z,8.93
2023-01-09T06:02:24.839Z,8.97
2023-01-09T06:03:24.997Z,8.79
2023-01-09T06:04:24.833Z,8.71
2023-01-09T06:05:24.833Z,8.81
2023-01-09T06:06:24.854Z,8.96
2023-01-09T06:07:24.856Z,8.97
2023-01-09T06:08:24.869Z,9.09
2023-01-09T06:09:24.887Z,9.19
2023-01-09T06:10:24.868Z,9.05
2023-01-09T06:11:24.877Z,9.18
2023-01-09T06:12:24.930Z,9.13
2023-01-09T06:13:24.950Z,9.13
2023-01-09T06:14:24.972Z,9.12
2023-01-09T06:15:24.947Z,9.05
2023-01-09T06:16:25.089Z,9.21
2023-01-09T06:17:25.004Z,9.34
2023-01-09T06:18:25.019Z,9.30
2023-01-09T06:19:25.033Z,9.36
2023-01-09T06:20:25.027Z,9.21
2023-01-09T06:21:25.056Z,9.29
2023-01-09T06:22:25.072Z,9.31
2023-01-09T06:23:25.088Z,9.31
2023-01-09T06:24:25.102Z,9.33
2023-01-09T06:25:25.097Z,9.42
2023-01-09T06:26:25.106Z,9.45
2023-01-09T06:27:25.129Z,9.42
2023-01-09T06:28:25.134Z,9.52
2023-01-09T06:29:25.136Z,9.37
2023-01-09T06:30:25.169Z,9.33
2023-01-09T06:31:25.262Z,9.29
2023-01-09T06:32:25.191Z,9.33
2023-01-09T06:33:25.203Z,9.48
2023-01-09T06:34:25.241Z,9.44
2023-01-09T06:35:25.301Z,9.44
2023-01-09T06:36:25.313Z,9.37
2023-01-09T06:37:25.282Z,9.11
2023-01-09T06:38:25.326Z,9.30
2023-01-09T06:39:25.363Z,9.21
2023-01-09T06:40:25.417Z,9.24
2023-01-09T06:41:25.479Z,9.36
2023-01-09T06:42:25.498Z,9.36
2023-01-09T06:43:25.532Z,9.44
2023-01-09T06:44:25.572Z,9.52
2023-01-09T06:45:25.592Z,9.45
2023-01-09T06:46:25.637Z,9.34
2023-01-09T06:47:25.621Z,9.36
2023-01-09T06:48:25.685Z,9.34
2023-01-09T06:49:25.696Z,9.31
2023-01-09T06:50:25.708Z,9.39
2023-01-09T06:51:25.723Z,9.15
2023-01-09T06:52:25.727Z,9.21
2023-01-09T06:53:25.769Z,9.26
2023-01-09T06:54:28.013Z,9.24
2023-01-09T06:55:25.815Z,9.24
2023-01-09T06:56:25.828Z,9.31
2023-01-09T06:57:25.826Z,9.44
2023-01-09T06:58:25.835Z,9.45
2023-01-09T06:59:25.816Z,9.39
2023-01-09T07:00:25.839Z,9.36
2023-01-09T07:01:25.967Z,9.24
2023-01-09T07:02:25.901Z,9.33
2023-01-09T07:03:25.897Z,9.39
2023-01-09T07:04:25.985Z,9.34
2023-01-09T07:05:25.937Z,9.36
2023-01-09T07:06:25.923Z,9.26
2023-01-09T07:07:25.968Z,9.22
2023-01-09T07:08:25.958Z,9.08
2023-01-09T07:09:25.958Z,9.15
2023-01-09T07:10:25.968Z,9.18
2023-01-09T07:11:25.993Z,9.27
2023-01-09T07:12:25.998Z,9.16
2023-01-09T07:13:26.050Z,9.05
2023-01-09T07:14:26.050Z,9.11
2023-01-09T07:15:26.068Z,9.05
2023-01-09T07:16:26.082Z,8.95
2023-01-09T07:17:26.121Z,9.08
2023-01-09T07:18:26.183Z,9.09
2023-01-09T07:19:26.198Z,8.95
2023-01-09T07:20:26.275Z,8.99
2023-01-09T07:21:26.292Z,8.97
2023-01-09T07:22:26.320Z,9.24
2023-01-09T07:23:26.372Z,9.16
2023-01-09T07:24:26.384Z,9.13
2023-01-09T07:25:26.401Z,9.18
2023-01-09T07:26:26.405Z,9.22
2023-01-09T07:27:26.431Z,9.24
2023-01-09T07:28:26.463Z,9.12
2023-01-09T07:29:26.513Z,9.13
2023-01-09T07:30:26.502Z,9.21
2023-01-09T07:31:26.599Z,9.26
2023-01-09T07:32:26.525Z,9.34
2023-01-09T07:33:26.555Z,9.31
2023-01-09T07:34:26.597Z,9.40
2023-01-09T07:35:26.615Z,9.39
2023-01-09T07:36:26.660Z,9.40
2023-01-09T07:37:26.666Z,9.48
2023-01-09T07:38:26.694Z,9.58
2023-01-09T07:39:26.716Z,9.54
2023-01-09T07:40:26.739Z,9.48
2023-01-09T07:41:26.757Z,9.55
2023-01-09T07:42:26.765Z,9.69
2023-01-09T07:43:26.806Z,9.62
2023-01-09T07:44:26.847Z,9.52
2023-01-09T07:45:26.910Z,9.18
2023-01-09T07:46:26.940Z,9.29
2023-01-09T07:47:26.978Z,9.40
2023-01-09T07:48:27.025Z,9.47
2023-01-09T07:49:27.090Z,9.36
2023-01-09T07:50:27.159Z,9.47
2023-01-09T07:51:27.170Z,9.24
2023-01-09T07:52:27.169Z,9.33
2023-01-09T07:53:27.242Z,9.56
2023-01-09T07:54:27.299Z,9.29
2023-01-09T07:55:27.301Z,9.36
2023-01-09T07:56:27.289Z,9.40
2023-01-09T07:57:27.311Z,9.52
2023-01-09T07:58:27.336Z,9.52
2023-01-09T07:59:27.311Z,9.31
2023-01-09T08:00:27.338Z,9.45
2023-01-09T08:01:27.431Z,9.39
2023-01-09T08:02:27.437Z,9.33
2023-01-09T08:03:27.471Z,9.34
2023-01-09T08:04:27.483Z,9.37
2023-01-09T08:05:27.512Z,9.40
2023-01-09T08:06:27.561Z,9.36
2023-01-09T08:07:27.618Z,9.37
2023-01-09T08:08:27.661Z,9.47
2023-01-09T08:09:27.643Z,9.29
2023-01-09T08:10:27.808Z,9.34
2023-01-09T08:11:27.732Z,9.42
2023-01-09T08:12:27.823Z,9.48
2023-01-09T08:13:27.803Z,9.47
2023-01-09T08:14:27.865Z,9.51
2023-01-09T08:15:27.934Z,9.64
2023-01-09T08:16:28.071Z,9.49
2023-01-09T08:17:28.075Z,9.40
2023-01-09T08:18:28.109Z,9.51
2023-01-09T08:19:28.157Z,9.55
2023-01-09T08:20:28.173Z,9.51
2023-01-09T08:21:28.204Z,9.51
2023-01-09T08:22:28.220Z,9.49
2023-01-09T08:23:28.247Z,9.52
2023-01-09T08:24:28.319Z,9.55
2023-01-09T08:25:28.335Z,9.59
2023-01-09T08:26:28.429Z,9.81
2023-01-09T08:27:28.432Z,9.90
2023-01-09T08:28:28.468Z,9.84
2023-01-09T08:29:28.476Z,9.73
2023-01-09T08:30:28.469Z,9.69
2023-01-09T08:31:28.583Z,9.74
2023-01-09T08:32:28.548Z,9.67
2023-01-09T08:33:28.581Z,9.69
2023-01-09T08:34:28.692Z,9.73
2023-01-09T08:35:28.608Z,9.56
2023-01-09T08:36:28.721Z,9.73
2023-01-09T08:37:28.728Z,9.58
2023-01-09T08:38:28.717Z,9.70
2023-01-09T08:39:28.729Z,9.70
2023-01-09T08:40:28.765Z,9.30
2023-01-09T08:41:28.794Z,9.31
2023-01-09T08:42:28.800Z,9.30
2023-01-09T08:43:28.834Z,9.51
2023-01-09T08:44:28.882Z,9.51
2023-01-09T08:45:28.932Z,9.56
2023-01-09T08:46:29.160Z,9.55
2023-01-09T08:47:28.989Z,9.48
2023-01-09T08:48:29.044Z,9.36
2023-01-09T08:49:29.093Z,9.33
2023-01-09T08:50:29.082Z,9.24
2023-01-09T08:51:29.133Z,9.26
2023-01-09T08:52:29.185Z,9.05
2023-01-09T08:53:29.243Z,9.12
2023-01-09T08:54:31.211Z,8.99
2023-01-09T08:55:29.277Z,9.13
2023-01-09T08:56:29.333Z,9.13
2023-01-09T08:57:29.327Z,9.12
2023-01-09T08:58:29.375Z,9.00
2023-01-09T08:59:29.449Z,8.92
2023-01-09T09:00:29.471Z,8.96
2023-01-09T09:01:29.539Z,9.12
2023-01-09T09:02:29.623Z,9.03
2023-01-09T09:03:29.604Z,8.93
2023-01-09T09:04:29.620Z,9.11
2023-01-09T09:05:29.622Z,9.00
2023-01-09T09:06:29.665Z,8.96
2023-01-09T09:07:29.665Z,8.99
2023-01-09T09:08:29.664Z,9.03
2023-01-09T09:09:29.709Z,8.99
2023-01-09T09:10:29.708Z,8.78
2023-01-09T09:11:29.755Z,8.93
2023-01-09T09:12:29.756Z,9.12
2023-01-09T09:13:29.783Z,8.90
2023-01-09T09:14:29.845Z,8.97
2023-01-09T09:15:29.858Z,9.11
2023-01-09T09:16:29.916Z,9.15
2023-01-09T09:17:29.958Z,9.47
2023-01-09T09:18:29.989Z,9.39
2023-01-09T09:19:29.998Z,9.45
2023-01-09T09:20:30.059Z,9.47
2023-01-09T09:21:30.044Z,9.33
2023-01-09T09:22:30.025Z,9.36
2023-01-09T09:23:30.010Z,9.15
2023-01-09T09:24:30.027Z,8.96
2023-01-09T09:25:30.082Z,9.21
2023-01-09T09:26:30.090Z,9.36
2023-01-09T09:27:30.111Z,9.45
2023-01-09T09:28:30.160Z,9.48
2023-01-09T09:29:30.191Z,9.55
2023-01-09T09:30:30.201Z,9.54
2023-01-09T09:31:30.243Z,9.48
2023-01-09T09:32:30.281Z,9.30
2023-01-09T09:33:30.286Z,9.36
2023-01-09T09:34:30.291Z,9.45
2023-01-09T09:35:30.351Z,9.48
2023-01-09T09:36:30.420Z,9.39
2023-01-09T09:37:30.385Z,9.54
2023-01-09T09:38:30.431Z,9.58
2023-01-09T09:39:30.446Z,9.66
2023-01-09T09:40:30.446Z,9.49
2023-01-09T09:41:30.450Z,9.74
2023-01-09T09:42:30.456Z,9.66
2023-01-09T09:43:30.501Z,9.80
2023-01-09T09:44:30.482Z,9.94
2023-01-09T09:45:30.584Z,9.91
2023-01-09T09:46:30.561Z,9.99
2023-01-09T09:47:30.519Z,9.97
2023-01-09T09:48:30.575Z,10.13
2023-01-09T09:49:30.545Z,10.10
2023-01-09T09:50:30.554Z,10.23
2023-01-09T09:51:30.533Z,10.38
2023-01-09T09:52:30.571Z,10.41
2023-01-09T09:53:30.628Z,10.46
2023-01-09T09:54:30.639Z,10.61
2023-01-09T09:55:30.626Z,10.51
2023-01-09T09:56:30.668Z,10.31
2023-01-09T09:57:30.659Z,10.33
2023-01-09T09:58:30.705Z,10.53
2023-01-09T09:59:30.791Z,10.39
2023-01-09T10:00:30.798Z,10.68
2023-01-09T10:01:30.762Z,10.59
2023-01-09T10:02:30.856Z,10.24
2023-01-09T10:03:34.258Z,10.23
2023-01-09T10:04:30.924Z,10.17
2023-01-09T10:05:30.965Z,10.24
2023-01-09T10:06:31.042Z,10.31
2023-01-09T10:07:31.089Z,10.20
2023-01-09T10:08:31.149Z,10.33
2023-01-09T10:09:31.179Z,10.36
2023-01-09T10:10:31.249Z,10.31
2023-01-09T10:11:31.285Z,10.41
2023-01-09T10:12:31.322Z,10.58
2023-01-09T10:13:32.622Z,10.45
2023-01-09T10:14:31.342Z,10.34
2023-01-09T10:15:31.394Z,10.58
2023-01-09T10:16:31.404Z,10.61
2023-01-09T10:17:31.419Z,10.83
2023-01-09T10:18:31.483Z,10.94
2023-01-09T10:19:31.517Z,11.02
2023-01-09T10:20:31.504Z,10.69
2023-01-09T10:21:31.553Z,10.53
2023-01-09T10:22:31.641Z,10.36
2023-01-09T10:23:31.685Z,10.38
2023-01-09T10:24:31.724Z,10.72
2023-01-09T10:25:31.795Z,10.80
2023-01-09T10:26:31.834Z,10.67
2023-01-09T10:27:31.846Z,10.72
2023-01-09T10:28:31.915Z,10.69
2023-01-09T10:29:31.965Z,10.77
2023-01-09T10:30:32.054Z,10.84
2023-01-09T10:31:32.155Z,10.67
2023-01-09T10:32:32.139Z,10.79
2023-01-09T10:33:32.170Z,10.67
2023-01-09T10:34:32.190Z,10.53
2023-01-09T10:35:42.739Z,10.61
2023-01-09T10:36:32.286Z,10.72
2023-01-09T10:37:32.286Z,10.72
2023-01-09T10:38:32.324Z,10.64
2023-01-09T10:39:32.318Z,10.64
2023-01-09T10:40:32.370Z,10.71
2023-01-09T10:41:32.408Z,10.76
2023-01-09T10:42:32.417Z,10.71
2023-01-09T10:43:32.437Z,10.84
2023-01-09T10:44:32.441Z,10.67
2023-01-09T10:45:32.479Z,10.94
2023-01-09T10:46:32.603Z,11.04
2023-01-09T10:47:32.522Z,10.87
2023-01-09T10:48:32.534Z,11.20
2023-01-09T10:49:32.553Z,11.13
2023-01-09T10:50:32.564Z,11.05
2023-01-09T10:51:32.614Z,10.94
2023-01-09T10:52:32.661Z,11.00
2023-01-09T10:53:32.684Z,10.77
2023-01-09T10:54:32.701Z,10.57
2023-01-09T10:55:32.685Z,10.79
2023-01-09T10:56:32.758Z,11.08
2023-01-09T10:57:32.793Z,11.04
2023-01-09T10:58:32.823Z,11.31
2023-01-09T10:59:32.833Z,11.19
2023-01-09T11:00:32.844Z,11.22
2023-01-09T11:01:32.891Z,11.38
2023-01-09T11:02:33.003Z,11.27
2023-01-09T11:03:32.998Z,11.12
2023-01-09T11:04:32.938Z,11.07
2023-01-09T11:05:33.123Z,11.26
2023-01-09T11:06:32.997Z,11.23
2023-01-09T11:07:33.019Z,11.18
2023-01-09T11:08:33.017Z,11.00
2023-01-09T11:09:33.033Z,11.16
2023-01-09T11:10:33.046Z,11.33
2023-01-09T11:11:33.109Z,11.07
2023-01-09T11:12:33.140Z,11.01
2023-01-09T11:13:33.195Z,11.18
2023-01-09T11:14:33.416Z,10.95
2023-01-09T11:15:33.325Z,11.04
2023-01-09T11:16:33.331Z,11.23
2023-01-09T11:17:33.350Z,11.08
2023-01-09T11:18:33.378Z,10.71
2023-01-09T11:19:33.603Z,10.79
2023-01-09T11:20:33.397Z,10.79
2023-01-09T11:21:33.432Z,10.83
2023-01-09T11:22:33.431Z,11.04
2023-01-09T11:23:33.443Z,11.02
2023-01-09T11:24:33.511Z,10.84
2023-01-09T11:25:33.509Z,10.79
2023-01-09T11:26:33.569Z,10.79
2023-01-09T11:27:33.554Z,10.71
2023-01-09T11:28:33.550Z,10.87
2023-01-09T11:29:33.577Z,11.02
2023-01-09T11:30:33.541Z,10.94
2023-01-09T11:31:33.602Z,10.87
2023-01-09T11:32:33.572Z,10.71
2023-01-09T11:33:33.602Z,10.58
2023-01-09T11:34:33.642Z,10.77
2023-01-09T11:35:34.741Z,10.80
2023-01-09T11:36:34.537Z,10.98
2023-01-09T11:37:33.643Z,10.89
2023-01-09T11:38:33.641Z,10.82
2023-01-09T11:39:33.689Z,10.71
2023-01-09T11:40:33.682Z,10.59
2023-01-09T11:41:33.723Z,10.75
2023-01-09T11:42:33.754Z,10.80
2023-01-09T11:43:33.800Z,10.80
2023-01-09T11:44:33.812Z,10.82
2023-01-09T11:45:33.855Z,10.90
2023-01-09T11:46:33.862Z,10.94
2023-01-09T11:47:33.896Z,10.89
2023-01-09T11:48:33.919Z,10.76
2023-01-09T11:49:33.925Z,10.83
2023-01-09T11:50:33.926Z,10.80
2023-01-09T11:51:33.928Z,11.01
2023-01-09T11:52:34.007Z,11.05
2023-01-09T11:53:34.019Z,10.82
2023-01-09T11:54:34.033Z,10.89
2023-01-09T11:55:41.902Z,10.68
2023-01-09T11:56:34.039Z,10.67
2023-01-09T11:57:34.067Z,10.83
2023-01-09T11:58:34.052Z,10.97
2023-01-09T11:59:34.102Z,10.65
2023-01-09T12:00:34.133Z,10.76
2023-01-09T12:01:34.140Z,10.58
2023-01-09T12:02:34.168Z,10.30
2023-01-09T12:03:34.143Z,10.51
2023-01-09T12:04:34.149Z,10.41
2023-01-09T12:05:34.159Z,10.45
2023-01-09T12:06:34.233Z,10.36
2023-01-09T12:07:34.278Z,10.41
2023-01-09T12:08:34.321Z,10.30
2023-01-09T12:09:34.371Z,10.43
2023-01-09T12:10:34.422Z,10.68
2023-01-09T12:11:34.471Z,10.77
2023-01-09T12:12:34.482Z,10.57
2023-01-09T12:13:34.480Z,10.87
2023-01-09T12:14:34.541Z,10.94
2023-01-09T12:15:34.573Z,10.90
2023-01-09T12:16:34.641Z,10.86
2023-01-09T12:17:34.567Z,10.86
2023-01-09T12:18:34.616Z,10.92
2023-01-09T12:19:34.663Z,10.86
2023-01-09T12:20:34.733Z,10.89
2023-01-09T12:21:34.757Z,10.72
2023-01-09T12:22:34.774Z,10.89
2023-01-09T12:23:34.797Z,10.77
2023-01-09T12:24:34.831Z,10.84
2023-01-09T12:25:34.890Z,10.69
2023-01-09T12:26:34.935Z,10.58
2023-01-09T12:27:34.938Z,10.65
2023-01-09T12:28:34.980Z,10.83
2023-01-09T12:29:34.968Z,10.79
2023-01-09T12:30:34.994Z,10.77
2023-01-09T12:31:36.926Z,10.86
2023-01-09T12:32:35.047Z,10.87
2023-01-09T12:33:35.031Z,10.57
2023-01-09T12:34:35.067Z,10.71
2023-01-09T12:35:35.132Z,10.75
2023-01-09T12:36:35.222Z,10.72
2023-01-09T12:37:35.217Z,10.48
2023-01-09T12:38:35.262Z,10.58
2023-01-09T12:39:35.309Z,10.59
2023-01-09T12:40:35.328Z,10.51
2023-01-09T12:41:35.338Z,10.48
2023-01-09T12:42:35.401Z,10.53
2023-01-09T12:43:35.466Z,10.49
2023-01-09T12:44:36.472Z,10.43
2023-01-09T12:45:35.519Z,10.05
2023-01-09T12:46:35.459Z,10.12
2023-01-09T12:47:35.512Z,10.06
2023-01-09T12:48:35.543Z,10.15
2023-01-09T12:49:35.601Z,10.20
2023-01-09T12:50:35.583Z,10.33
2023-01-09T12:51:35.652Z,10.13
2023-01-09T12:52:35.669Z,9.95
2023-01-09T12:53:35.677Z,9.74
2023-01-09T12:54:35.721Z,9.77
2023-01-09T12:55:35.758Z,9.90
2023-01-09T12:56:35.752Z,10.05
2023-01-09T12:57:35.800Z,9.94
2023-01-09T12:58:35.847Z,9.95
2023-01-09T12:59:35.843Z,9.81
2023-01-09T13:00:35.895Z,9.70
2023-01-09T13:01:35.931Z,9.82
2023-01-09T13:02:35.907Z,9.84
2023-01-09T13:03:35.934Z,9.81
2023-01-09T13:04:35.955Z,9.87
2023-01-09T13:05:35.967Z,9.94
2023-01-09T13:06:35.963Z,10.06
2023-01-09T13:07:35.989Z,10.25